Virtual Futura



 METAR AND TAF INFORMATION
METAR FOR LIPO
ADDS - METARS form results

(1202 UTC 19 July 2019)
Data provider http://aviationweather.gov/metar/data/
 
Forecast for: LIPO (BRESCIA/MONTICHI, IT)
Text: TAF LIPO 191100Z 1912/2012 VRB05KT CAVOK
Forecast period: 1200 UTC 19 July 2019 to 1200 UTC 20 July 2019
Forecast type: FROM: standard forecast or significant change
Winds: variable direction winds at 6 MPH (5 knots; 2.6 m/s)
Visibility: 6 or more miles 10+ km)
Ceiling: unknown
Clouds: missing
Weather: NSW  (no significant weather)

 AIRPORT MAP

 RUNWAY INFORMATION
Runway 14 Runway length 9810 ft Runway width 148 ft
Runway elevation 353 ft Runway displaced threshold 984 ft Runway heading 135
Runway 32 Runway length 9810 ft Runway width 148 ft
Runway elevation 333 ft Runway displaced threshold 640 ft Runway heading 315

 AIRPORT FREQUENCIES
Type APP Name GARDA APP Frequency 124.45 MHZ
Type TWR Name TWR Frequency 119.4 MHZ

 AIRPORT NEAR NAVIGATION AIDS
Type VOR-DME Name Montichiari Frequency 117700 KHZ

Poltica de Cookies

Esta web utiliza cookies para obtener datos estadsticos de la navegacin de sus usuarios. Si continas navegando consideramos que aceptas su uso. Ms informacin X Cerrar